Riley, Oregon
Current Conditions -  °F | °C
As of 6:53 AM on Friday 19 Dec 2014 (Local Time) from KBNO Reporting Station
Light Rain Light Rain  
Wind Chill: 28°   Ceiling: 3900
Heat Index: 34°   Visibility: 10mi
Dew Point: 32°   Wind: 7mph
Humidity: 92%   Direction: 40°NE
Pressure: 29.98"   Gusts: NA
Location:  43.54°N, 119.51°W
Report Text: KBNO 191453Z AUTO 04006KT 10SM -RA OVC039 01/00 A2998 RMK AO2 UPB18E20 SLP166 P0001 60003 T00110000 55004
Loading
Personal Weather Stations






























Interactive Weather Map New forecast layout! Learn more

10-Day Weather Forecast

Advertisements
Track Severe Weather on mobile